Delphi, Ohio
Current Conditions -  °F | °C
As of 11:52 PM on Saturday 22 Nov 2014 (Local Time) from KMFD Reporting Station
Overcast Overcast  
Wind Chill: 42°   Ceiling: 4000
Heat Index: 48°   Visibility: 10mi
Dew Point: 37°   Wind: 16mph
Humidity: 66%   Direction: 190°S
Pressure: 30.04"   Gusts: NA
Location:  41.0768°N, 82.7214°W
Report Text: KMFD 230452Z 19014KT 10SM OVC040 09/03 A3004 RMK AO2 RAB19E31 SLP177 P0001 T00890028 401001061
Loading
Personal Weather Stations






























Interactive Weather Map New forecast layout! Learn more

10-Day Weather Forecast

Advertisements
Track Severe Weather on mobile